sensor_id;sensor_type;location;lat;lon;timestamp;P1;durP1;ratioP1;P2;durP2;ratioP2
10440;SDS011;5268;49.346;9.522;2023-02-15T04:07:01;14.10;;;9.13;;
10440;SDS011;5268;49.346;9.522;2023-02-15T04:12:04;15.07;;;10.00;;
10440;SDS011;5268;49.346;9.522;2023-02-15T04:17:06;15.53;;;10.23;;
10440;SDS011;5268;49.346;9.522;2023-02-15T04:22:10;14.50;;;10.57;;
10440;SDS011;5268;49.346;9.522;2023-02-15T04:27:29;14.93;;;10.70;;
10440;SDS011;5268;49.346;9.522;2023-02-15T04:32:31;13.90;;;9.50;;
10440;SDS011;5268;49.346;9.522;2023-02-15T04:37:35;15.52;;;9.93;;
10440;SDS011;5268;49.346;9.522;2023-02-15T04:42:37;16.38;;;10.75;;
10440;SDS011;5268;49.346;9.522;2023-02-15T04:47:39;15.80;;;10.70;;
10440;SDS011;5268;49.346;9.522;2023-02-15T04:52:44;15.40;;;10.40;;
10440;SDS011;5268;49.346;9.522;2023-02-15T04:57:46;16.20;;;10.87;;
10440;SDS011;5268;49.346;9.522;2023-02-15T05:02:48;15.30;;;10.35;;
10440;SDS011;5268;49.346;9.522;2023-02-15T05:07:51;15.25;;;10.95;;
10440;SDS011;5268;49.346;9.522;2023-02-15T05:12:53;16.60;;;11.00;;
10440;SDS011;5268;49.346;9.522;2023-02-15T05:17:55;15.07;;;10.52;;
10440;SDS011;5268;49.346;9.522;2023-02-15T05:22:59;15.50;;;9.80;;
10440;SDS011;5268;49.346;9.522;2023-02-15T05:28:01;16.88;;;11.25;;
10440;SDS011;5268;49.346;9.522;2023-02-15T05:33:21;13.87;;;9.17;;
10440;SDS011;5268;49.346;9.522;2023-02-15T05:38:24;17.37;;;11.60;;
10440;SDS011;5268;49.346;9.522;2023-02-15T05:43:26;15.87;;;10.50;;
10440;SDS011;5268;49.346;9.522;2023-02-15T05:48:28;16.63;;;11.10;;
10440;SDS011;5268;49.346;9.522;2023-02-15T05:53:33;17.67;;;11.50;;
10440;SDS011;5268;49.346;9.522;2023-02-15T05:58:37;17.83;;;11.73;;
10440;SDS011;5268;49.346;9.522;2023-02-15T06:03:40;17.13;;;11.25;;
10440;SDS011;5268;49.346;9.522;2023-02-15T06:08:43;16.43;;;10.93;;
10440;SDS011;5268;49.346;9.522;2023-02-15T06:13:45;17.13;;;11.63;;
10440;SDS011;5268;49.346;9.522;2023-02-15T06:18:47;16.27;;;11.05;;
10440;SDS011;5268;49.346;9.522;2023-02-15T06:23:51;16.17;;;11.23;;
10440;SDS011;5268;49.346;9.522;2023-02-15T06:28:53;17.43;;;12.20;;
10440;SDS011;5268;49.346;9.522;2023-02-15T06:33:55;16.60;;;10.43;;
10440;SDS011;5268;49.346;9.522;2023-02-15T06:39:02;16.17;;;10.20;;
10440;SDS011;5268;49.346;9.522;2023-02-15T06:44:04;16.40;;;11.13;;
10440;SDS011;5268;49.346;9.522;2023-02-15T06:49:06;16.57;;;11.03;;
10440;SDS011;5268;49.346;9.522;2023-02-15T06:54:10;16.23;;;10.17;;
10440;SDS011;5268;49.346;9.522;2023-02-15T06:59:12;16.50;;;10.73;;
10440;SDS011;5268;49.346;9.522;2023-02-15T07:04:14;15.90;;;10.27;;
10440;SDS011;5268;49.346;9.522;2023-02-15T07:09:17;12.10;;;9.33;;
10440;SDS011;5268;49.346;9.522;2023-02-15T07:14:19;15.60;;;10.37;;
10440;SDS011;5268;49.346;9.522;2023-02-15T07:19:21;17.30;;;11.33;;
10440;SDS011;5268;49.346;9.522;2023-02-15T07:24:25;14.73;;;9.90;;
10440;SDS011;5268;49.346;9.522;2023-02-15T07:29:29;15.13;;;9.97;;
10440;SDS011;5268;49.346;9.522;2023-02-15T07:34:35;13.40;;;9.00;;
10440;SDS011;5268;49.346;9.522;2023-02-15T07:45:24;15.30;;;9.70;;
10440;SDS011;5268;49.346;9.522;2023-02-15T07:51:01;13.67;;;8.97;;
10440;SDS011;5268;49.346;9.522;2023-02-15T08:20:31;22.67;;;15.67;;
10440;SDS011;5268;49.346;9.522;2023-02-15T08:25:47;19.50;;;13.87;;
10440;SDS011;5268;49.346;9.522;2023-02-15T08:31:16;15.13;;;10.50;;
10440;SDS011;5268;49.346;9.522;2023-02-15T08:36:35;16.07;;;12.17;;
10440;SDS011;5268;49.346;9.522;2023-02-15T08:41:38;17.90;;;12.73;;
10440;SDS011;5268;49.346;9.522;2023-02-15T08:46:45;16.73;;;11.37;;
10440;SDS011;5268;49.346;9.522;2023-02-15T08:57:21;15.53;;;11.23;;
10440;SDS011;5268;49.346;9.522;2023-02-15T09:03:19;16.00;;;11.20;;
10440;SDS011;5268;49.346;9.522;2023-02-15T09:43:40;14.48;;;10.85;;
10440;SDS011;5268;49.346;9.522;2023-02-15T09:49:46;14.90;;;11.13;;
10440;SDS011;5268;49.346;9.522;2023-02-15T10:13:18;15.43;;;11.10;;
10440;SDS011;5268;49.346;9.522;2023-02-15T10:19:21;14.53;;;10.63;;
10440;SDS011;5268;49.346;9.522;2023-02-15T11:04:57;17.13;;;12.40;;
10440;SDS011;5268;49.346;9.522;2023-02-15T11:16:08;13.23;;;10.32;;
10440;SDS011;5268;49.346;9.522;2023-02-15T11:21:17;13.82;;;11.07;;
10440;SDS011;5268;49.346;9.522;2023-02-15T11:26:27;13.57;;;11.48;;
10440;SDS011;5268;49.346;9.522;2023-02-15T11:31:35;14.95;;;11.60;;
10440;SDS011;5268;49.346;9.522;2023-02-15T11:36:44;13.10;;;11.07;;
10440;SDS011;5268;49.346;9.522;2023-02-15T11:41:50;15.90;;;12.32;;
10440;SDS011;5268;49.346;9.522;2023-02-15T11:46:56;16.02;;;12.27;;
10440;SDS011;5268;49.346;9.522;2023-02-15T11:51:58;14.32;;;11.80;;
10440;SDS011;5268;49.346;9.522;2023-02-15T11:57:05;15.25;;;12.05;;
10440;SDS011;5268;49.346;9.522;2023-02-15T12:02:17;14.13;;;11.90;;
10440;SDS011;5268;49.346;9.522;2023-02-15T12:07:21;13.30;;;10.95;;
10440;SDS011;5268;49.346;9.522;2023-02-15T12:12:28;14.43;;;11.20;;
10440;SDS011;5268;49.346;9.522;2023-02-15T12:17:32;14.45;;;12.02;;
10440;SDS011;5268;49.346;9.522;2023-02-15T12:22:39;14.85;;;11.98;;
10440;SDS011;5268;49.346;9.522;2023-02-15T12:27:48;16.48;;;13.52;;
10440;SDS011;5268;49.346;9.522;2023-02-15T12:32:52;14.25;;;12.25;;
10440;SDS011;5268;49.346;9.522;2023-02-15T12:37:59;13.90;;;12.40;;
10440;SDS011;5268;49.346;9.522;2023-02-15T12:43:08;13.90;;;12.32;;
10440;SDS011;5268;49.346;9.522;2023-02-15T12:48:26;16.15;;;13.23;;
10440;SDS011;5268;49.346;9.522;2023-02-15T12:53:30;15.98;;;12.63;;
10440;SDS011;5268;49.346;9.522;2023-02-15T12:58:35;17.35;;;13.85;;
10440;SDS011;5268;49.346;9.522;2023-02-15T13:03:38;16.52;;;13.18;;
10440;SDS011;5268;49.346;9.522;2023-02-15T13:08:51;16.15;;;13.48;;
10440;SDS011;5268;49.346;9.522;2023-02-15T13:13:57;16.10;;;13.45;;
10440;SDS011;5268;49.346;9.522;2023-02-15T13:19:02;15.43;;;13.18;;
10440;SDS011;5268;49.346;9.522;2023-02-15T13:24:13;16.80;;;13.75;;
10440;SDS011;5268;49.346;9.522;2023-02-15T13:29:22;15.88;;;12.75;;
10440;SDS011;5268;49.346;9.522;2023-02-15T13:34:28;15.45;;;12.85;;
10440;SDS011;5268;49.346;9.522;2023-02-15T13:39:34;16.90;;;13.27;;
10440;SDS011;5268;49.346;9.522;2023-02-15T13:44:50;15.88;;;13.68;;
10440;SDS011;5268;49.346;9.522;2023-02-15T13:55:46;17.17;;;14.63;;
10440;SDS011;5268;49.346;9.522;2023-02-15T14:00:56;15.57;;;12.73;;
10440;SDS011;5268;49.346;9.522;2023-02-15T14:06:13;15.30;;;13.35;;
10440;SDS011;5268;49.346;9.522;2023-02-15T14:11:22;18.45;;;13.85;;
10440;SDS011;5268;49.346;9.522;2023-02-15T14:16:35;14.30;;;12.65;;
10440;SDS011;5268;49.346;9.522;2023-02-15T14:21:46;15.63;;;13.20;;
10440;SDS011;5268;49.346;9.522;2023-02-15T14:26:56;16.00;;;13.30;;
10440;SDS011;5268;49.346;9.522;2023-02-15T14:32:08;15.55;;;13.57;;
10440;SDS011;5268;49.346;9.522;2023-02-15T14:37:14;15.23;;;13.60;;
10440;SDS011;5268;49.346;9.522;2023-02-15T14:42:21;15.13;;;12.85;;
10440;SDS011;5268;49.346;9.522;2023-02-15T14:47:31;15.02;;;12.93;;
10440;SDS011;5268;49.346;9.522;2023-02-15T14:52:40;16.20;;;13.07;;
10440;SDS011;5268;49.346;9.522;2023-02-15T14:58:16;15.23;;;12.73;;
10440;SDS011;5268;49.346;9.522;2023-02-15T15:03:21;15.05;;;12.90;;
10440;SDS011;5268;49.346;9.522;2023-02-15T15:08:27;14.32;;;12.38;;
10440;SDS011;5268;49.346;9.522;2023-02-15T15:13:35;15.50;;;13.75;;
10440;SDS011;5268;49.346;9.522;2023-02-15T15:18:55;15.32;;;13.32;;
10440;SDS011;5268;49.346;9.522;2023-02-15T15:23:58;16.75;;;13.48;;
10440;SDS011;5268;49.346;9.522;2023-02-15T15:29:00;15.65;;;13.20;;
10440;SDS011;5268;49.346;9.522;2023-02-15T15:34:21;14.80;;;12.40;;
10440;SDS011;5268;49.346;9.522;2023-02-15T15:50:39;15.77;;;13.85;;
10440;SDS011;5268;49.346;9.522;2023-02-15T15:55:42;15.75;;;13.70;;
10440;SDS011;5268;49.346;9.522;2023-02-15T16:00:48;15.57;;;13.77;;
10440;SDS011;5268;49.346;9.522;2023-02-15T16:05:55;16.48;;;12.68;;
10440;SDS011;5268;49.346;9.522;2023-02-15T16:11:00;16.38;;;13.60;;
10440;SDS011;5268;49.346;9.522;2023-02-15T16:16:11;17.42;;;13.60;;
10440;SDS011;5268;49.346;9.522;2023-02-15T16:21:16;16.17;;;12.80;;
10440;SDS011;5268;49.346;9.522;2023-02-15T16:26:23;16.58;;;13.60;;
10440;SDS011;5268;49.346;9.522;2023-02-15T16:31:40;15.93;;;12.95;;
10440;SDS011;5268;49.346;9.522;2023-02-15T16:36:44;15.63;;;13.52;;
10440;SDS011;5268;49.346;9.522;2023-02-15T16:41:46;16.88;;;13.30;;
10440;SDS011;5268;49.346;9.522;2023-02-15T16:46:49;15.02;;;12.48;;
10440;SDS011;5268;49.346;9.522;2023-02-15T16:51:56;14.85;;;13.02;;
10440;SDS011;5268;49.346;9.522;2023-02-15T16:57:00;16.90;;;13.48;;
10440;SDS011;5268;49.346;9.522;2023-02-15T17:02:03;18.65;;;15.60;;
10440;SDS011;5268;49.346;9.522;2023-02-15T17:07:13;17.63;;;15.15;;
10440;SDS011;5268;49.346;9.522;2023-02-15T17:17:46;25.20;;;17.70;;
10440;SDS011;5268;49.346;9.522;2023-02-15T17:22:50;24.55;;;18.13;;
10440;SDS011;5268;49.346;9.522;2023-02-15T17:27:53;23.75;;;19.13;;
10440;SDS011;5268;49.346;9.522;2023-02-15T17:32:58;24.58;;;17.15;;
10440;SDS011;5268;49.346;9.522;2023-02-15T17:38:04;20.77;;;16.10;;
10440;SDS011;5268;49.346;9.522;2023-02-15T17:43:07;20.30;;;16.05;;
10440;SDS011;5268;49.346;9.522;2023-02-15T17:48:12;29.15;;;20.48;;
10440;SDS011;5268;49.346;9.522;2023-02-15T17:53:22;19.83;;;14.52;;
10440;SDS011;5268;49.346;9.522;2023-02-15T17:58:25;18.45;;;14.27;;
10440;SDS011;5268;49.346;9.522;2023-02-15T18:03:29;18.17;;;14.05;;
10440;SDS011;5268;49.346;9.522;2023-02-15T18:08:59;17.27;;;13.73;;
10440;SDS011;5268;49.346;9.522;2023-02-15T18:14:18;19.30;;;13.27;;
10440;SDS011;5268;49.346;9.522;2023-02-15T18:19:21;19.38;;;14.90;;
10440;SDS011;5268;49.346;9.522;2023-02-15T18:24:25;23.67;;;17.90;;
10440;SDS011;5268;49.346;9.522;2023-02-15T18:29:27;23.17;;;17.17;;
10440;SDS011;5268;49.346;9.522;2023-02-15T18:34:30;22.38;;;16.92;;
10440;SDS011;5268;49.346;9.522;2023-02-15T18:39:37;22.35;;;16.15;;
10440;SDS011;5268;49.346;9.522;2023-02-15T18:44:41;23.73;;;18.02;;
10440;SDS011;5268;49.346;9.522;2023-02-15T18:49:43;25.15;;;18.38;;
10440;SDS011;5268;49.346;9.522;2023-02-15T18:54:46;24.65;;;19.40;;
10440;SDS011;5268;49.346;9.522;2023-02-15T18:59:51;24.27;;;18.35;;
10440;SDS011;5268;49.346;9.522;2023-02-15T19:04:53;24.10;;;19.08;;
10440;SDS011;5268;49.346;9.522;2023-02-15T19:09:58;23.00;;;19.13;;
10440;SDS011;5268;49.346;9.522;2023-02-15T19:15:01;21.95;;;16.08;;
10440;SDS011;5268;49.346;9.522;2023-02-15T19:20:04;20.02;;;14.07;;
10440;SDS011;5268;49.346;9.522;2023-02-15T19:25:12;19.80;;;13.80;;
10440;SDS011;5268;49.346;9.522;2023-02-15T19:30:17;18.38;;;13.55;;
10440;SDS011;5268;49.346;9.522;2023-02-15T19:35:22;19.80;;;14.88;;
10440;SDS011;5268;49.346;9.522;2023-02-15T19:40:28;21.52;;;16.23;;
10440;SDS011;5268;49.346;9.522;2023-02-15T19:45:32;20.23;;;14.93;;
10440;SDS011;5268;49.346;9.522;2023-02-15T19:50:34;20.55;;;15.60;;
10440;SDS011;5268;49.346;9.522;2023-02-15T19:55:37;17.77;;;14.35;;
10440;SDS011;5268;49.346;9.522;2023-02-15T20:00:40;23.13;;;16.88;;
10440;SDS011;5268;49.346;9.522;2023-02-15T20:05:42;24.70;;;16.55;;
10440;SDS011;5268;49.346;9.522;2023-02-15T20:10:47;21.58;;;15.40;;
10440;SDS011;5268;49.346;9.522;2023-02-15T20:15:49;21.50;;;14.25;;
10440;SDS011;5268;49.346;9.522;2023-02-15T20:20:52;17.85;;;13.52;;
10440;SDS011;5268;49.346;9.522;2023-02-15T20:25:57;17.55;;;13.25;;
10440;SDS011;5268;49.346;9.522;2023-02-15T20:31:00;20.38;;;16.05;;
10440;SDS011;5268;49.346;9.522;2023-02-15T20:36:02;23.85;;;18.83;;
10440;SDS011;5268;49.346;9.522;2023-02-15T20:41:11;22.48;;;16.08;;
10440;SDS011;5268;49.346;9.522;2023-02-15T20:46:33;26.08;;;17.60;;
10440;SDS011;5268;49.346;9.522;2023-02-15T20:51:36;22.55;;;17.48;;
10440;SDS011;5268;49.346;9.522;2023-02-15T20:56:43;22.80;;;18.10;;
10440;SDS011;5268;49.346;9.522;2023-02-15T21:01:45;22.45;;;16.65;;
10440;SDS011;5268;49.346;9.522;2023-02-15T21:06:48;22.90;;;16.50;;
10440;SDS011;5268;49.346;9.522;2023-02-15T21:11:53;21.85;;;15.68;;
10440;SDS011;5268;49.346;9.522;2023-02-15T21:16:58;22.00;;;15.40;;
10440;SDS011;5268;49.346;9.522;2023-02-15T21:22:01;26.83;;;19.70;;
10440;SDS011;5268;49.346;9.522;2023-02-15T21:27:08;20.42;;;14.48;;
10440;SDS011;5268;49.346;9.522;2023-02-15T21:32:15;28.40;;;16.92;;
10440;SDS011;5268;49.346;9.522;2023-02-15T21:37:26;21.23;;;14.65;;
10440;SDS011;5268;49.346;9.522;2023-02-15T21:42:33;19.90;;;14.00;;
10440;SDS011;5268;49.346;9.522;2023-02-15T21:47:53;26.33;;;15.05;;
10440;SDS011;5268;49.346;9.522;2023-02-15T21:52:55;29.20;;;16.20;;
10440;SDS011;5268;49.346;9.522;2023-02-15T21:57:59;21.27;;;14.77;;
10440;SDS011;5268;49.346;9.522;2023-02-15T22:03:02;25.92;;;15.02;;
10440;SDS011;5268;49.346;9.522;2023-02-15T22:08:08;23.58;;;14.68;;
10440;SDS011;5268;49.346;9.522;2023-02-15T22:13:14;29.60;;;15.93;;
10440;SDS011;5268;49.346;9.522;2023-02-15T22:18:21;33.28;;;17.10;;
10440;SDS011;5268;49.346;9.522;2023-02-15T22:23:24;21.90;;;16.63;;
10440;SDS011;5268;49.346;9.522;2023-02-15T22:28:30;25.58;;;16.60;;
10440;SDS011;5268;49.346;9.522;2023-02-15T22:33:33;26.02;;;15.98;;
10440;SDS011;5268;49.346;9.522;2023-02-15T22:38:36;33.25;;;17.67;;
10440;SDS011;5268;49.346;9.522;2023-02-15T22:43:40;22.05;;;15.60;;
10440;SDS011;5268;49.346;9.522;2023-02-15T22:48:44;22.55;;;14.80;;
10440;SDS011;5268;49.346;9.522;2023-02-15T22:53:47;23.38;;;15.93;;
